sensor_id;sensor_type;location;lat;lon;timestamp;pressure;altitude;pressure_sealevel;temperature;humidity
57000;BME280;42891;50.006;21.964;2023-02-24T00:00:12;98467.81;;;6.82;64.36
57000;BME280;42891;50.006;21.964;2023-02-24T00:04:36;98466.06;;;6.71;64.17
57000;BME280;42891;50.006;21.964;2023-02-24T00:08:39;98479.91;;;6.73;64.87
57000;BME280;42891;50.006;21.964;2023-02-24T00:12:39;98469.56;;;6.49;65.33
57000;BME280;42891;50.006;21.964;2023-02-24T00:16:39;98450.47;;;6.58;64.86
57000;BME280;42891;50.006;21.964;2023-02-24T00:20:39;98454.47;;;6.41;66.04
57000;BME280;42891;50.006;21.964;2023-02-24T00:24:40;98438.97;;;6.38;65.77
57000;BME280;42891;50.006;21.964;2023-02-24T00:28:41;98451.19;;;6.60;65.75
57000;BME280;42891;50.006;21.964;2023-02-24T00:32:42;98435.31;;;6.62;65.54
57000;BME280;42891;50.006;21.964;2023-02-24T00:36:42;98428.03;;;6.65;65.44
57000;BME280;42891;50.006;21.964;2023-02-24T00:40:42;98397.75;;;6.61;65.30
57000;BME280;42891;50.006;21.964;2023-02-24T00:44:45;98433.97;;;6.68;65.46
57000;BME280;42891;50.006;21.964;2023-02-24T00:48:47;98416.78;;;6.75;65.38
57000;BME280;42891;50.006;21.964;2023-02-24T00:52:48;98424.88;;;6.83;65.56
57000;BME280;42891;50.006;21.964;2023-02-24T00:56:48;98414.41;;;6.72;65.94
57000;BME280;42891;50.006;21.964;2023-02-24T01:00:49;98392.25;;;6.64;65.63
57000;BME280;42891;50.006;21.964;2023-02-24T01:04:49;98403.81;;;6.73;65.79
57000;BME280;42891;50.006;21.964;2023-02-24T01:08:52;98397.16;;;6.69;65.48
57000;BME280;42891;50.006;21.964;2023-02-24T01:12:52;98391.69;;;6.61;65.82
57000;BME280;42891;50.006;21.964;2023-02-24T01:16:53;98353.09;;;6.52;65.85
57000;BME280;42891;50.006;21.964;2023-02-24T01:20:57;98362.22;;;6.36;66.19
57000;BME280;42891;50.006;21.964;2023-02-24T01:24:57;98355.03;;;6.38;66.24
57000;BME280;42891;50.006;21.964;2023-02-24T01:28:57;98366.22;;;6.52;66.24
57000;BME280;42891;50.006;21.964;2023-02-24T01:32:58;98366.28;;;6.61;66.15
57000;BME280;42891;50.006;21.964;2023-02-24T01:36:58;98354.13;;;6.28;66.02
57000;BME280;42891;50.006;21.964;2023-02-24T01:40:58;98340.09;;;6.18;66.69
57000;BME280;42891;50.006;21.964;2023-02-24T01:45:09;98332.41;;;6.05;67.13
57000;BME280;42891;50.006;21.964;2023-02-24T01:49:32;98339.06;;;6.09;66.99
57000;BME280;42891;50.006;21.964;2023-02-24T01:53:33;98340.94;;;6.18;67.17
57000;BME280;42891;50.006;21.964;2023-02-24T01:57:36;98352.28;;;6.07;67.39
57000;BME280;42891;50.006;21.964;2023-02-24T02:01:38;98338.25;;;6.08;67.05
57000;BME280;42891;50.006;21.964;2023-02-24T02:05:41;98337.28;;;6.09;67.37
57000;BME280;42891;50.006;21.964;2023-02-24T02:09:43;98327.75;;;6.08;67.49
57000;BME280;42891;50.006;21.964;2023-02-24T02:13:45;98328.22;;;6.02;67.77
57000;BME280;42891;50.006;21.964;2023-02-24T02:22:20;98324.50;;;6.16;67.41
57000;BME280;42891;50.006;21.964;2023-02-24T02:35:45;98295.88;;;6.24;66.83
57000;BME280;42891;50.006;21.964;2023-02-24T02:39:52;98307.00;;;6.17;66.82
57000;BME280;42891;50.006;21.964;2023-02-24T02:44:02;98299.75;;;6.09;66.90
57000;BME280;42891;50.006;21.964;2023-02-24T02:48:19;98293.03;;;6.16;67.21
57000;BME280;42891;50.006;21.964;2023-02-24T02:52:31;98310.06;;;6.22;67.07
57000;BME280;42891;50.006;21.964;2023-02-24T02:57:01;98310.44;;;6.17;67.30
57000;BME280;42891;50.006;21.964;2023-02-24T03:01:05;98293.16;;;6.14;67.65
57000;BME280;42891;50.006;21.964;2023-02-24T03:05:08;98293.13;;;6.26;67.59
57000;BME280;42891;50.006;21.964;2023-02-24T03:09:23;98291.69;;;6.22;67.55
57000;BME280;42891;50.006;21.964;2023-02-24T03:13:28;98256.19;;;5.85;68.31
57000;BME280;42891;50.006;21.964;2023-02-24T03:17:35;98292.34;;;6.14;67.73
57000;BME280;42891;50.006;21.964;2023-02-24T03:21:44;98271.03;;;6.07;67.40
57000;BME280;42891;50.006;21.964;2023-02-24T03:30:50;98274.34;;;6.21;67.41
57000;BME280;42891;50.006;21.964;2023-02-24T03:34:54;98271.91;;;6.29;67.60
57000;BME280;42891;50.006;21.964;2023-02-24T03:38:56;98265.38;;;6.23;66.97
57000;BME280;42891;50.006;21.964;2023-02-24T03:43:06;98268.88;;;6.12;67.62
57000;BME280;42891;50.006;21.964;2023-02-24T03:47:08;98266.22;;;6.24;67.51
57000;BME280;42891;50.006;21.964;2023-02-24T03:51:12;98257.88;;;6.19;68.25
57000;BME280;42891;50.006;21.964;2023-02-24T04:04:32;98242.63;;;6.24;67.74
57000;BME280;42891;50.006;21.964;2023-02-24T04:08:50;98224.69;;;6.08;67.80
57000;BME280;42891;50.006;21.964;2023-02-24T04:17:02;98230.59;;;6.21;68.49
57000;BME280;42891;50.006;21.964;2023-02-24T04:21:06;98228.56;;;6.25;68.63
57000;BME280;42891;50.006;21.964;2023-02-24T04:25:08;98220.56;;;6.26;68.60
57000;BME280;42891;50.006;21.964;2023-02-24T04:29:16;98221.72;;;6.34;68.45
57000;BME280;42891;50.006;21.964;2023-02-24T04:33:20;98186.41;;;6.17;68.41
57000;BME280;42891;50.006;21.964;2023-02-24T04:37:20;98212.38;;;6.20;68.21
57000;BME280;42891;50.006;21.964;2023-02-24T04:41:22;98209.22;;;6.26;68.59
57000;BME280;42891;50.006;21.964;2023-02-24T04:45:27;98205.44;;;6.19;68.77
57000;BME280;42891;50.006;21.964;2023-02-24T04:49:28;98209.63;;;6.21;68.55
57000;BME280;42891;50.006;21.964;2023-02-24T04:53:28;98196.00;;;6.06;68.85
57000;BME280;42891;50.006;21.964;2023-02-24T04:57:29;98197.31;;;6.22;68.48
57000;BME280;42891;50.006;21.964;2023-02-24T05:01:29;98187.97;;;6.19;68.57
57000;BME280;42891;50.006;21.964;2023-02-24T05:05:31;98179.81;;;6.22;68.76
57000;BME280;42891;50.006;21.964;2023-02-24T05:09:32;98184.72;;;6.37;68.35
57000;BME280;42891;50.006;21.964;2023-02-24T05:13:32;98169.28;;;6.12;68.94
57000;BME280;42891;50.006;21.964;2023-02-24T05:17:33;98168.97;;;6.06;69.50
57000;BME280;42891;50.006;21.964;2023-02-24T05:21:34;98170.91;;;6.13;69.02
57000;BME280;42891;50.006;21.964;2023-02-24T05:25:34;98161.78;;;6.08;69.50
57000;BME280;42891;50.006;21.964;2023-02-24T05:29:36;98142.78;;;5.94;69.19
57000;BME280;42891;50.006;21.964;2023-02-24T05:33:38;98150.75;;;6.04;69.73
57000;BME280;42891;50.006;21.964;2023-02-24T05:37:39;98137.56;;;5.94;69.38
57000;BME280;42891;50.006;21.964;2023-02-24T05:41:41;98160.28;;;6.05;70.18
57000;BME280;42891;50.006;21.964;2023-02-24T05:45:42;98171.84;;;6.03;69.75
57000;BME280;42891;50.006;21.964;2023-02-24T05:49:42;98150.16;;;6.01;70.06
57000;BME280;42891;50.006;21.964;2023-02-24T05:53:43;98158.59;;;6.04;70.32
57000;BME280;42891;50.006;21.964;2023-02-24T05:57:43;98141.13;;;5.93;70.22
57000;BME280;42891;50.006;21.964;2023-02-24T06:01:43;98153.41;;;5.93;70.99
57000;BME280;42891;50.006;21.964;2023-02-24T06:05:52;98153.72;;;6.00;71.49
57000;BME280;42891;50.006;21.964;2023-02-24T06:09:57;98157.88;;;6.02;72.74
57000;BME280;42891;50.006;21.964;2023-02-24T06:13:57;98150.66;;;5.94;73.74
57000;BME280;42891;50.006;21.964;2023-02-24T06:18:01;98148.50;;;6.00;73.12
57000;BME280;42891;50.006;21.964;2023-02-24T06:22:01;98147.19;;;5.94;74.75
57000;BME280;42891;50.006;21.964;2023-02-24T06:26:03;98158.50;;;5.94;75.29
57000;BME280;42891;50.006;21.964;2023-02-24T06:30:04;98128.50;;;5.99;74.81
57000;BME280;42891;50.006;21.964;2023-02-24T06:34:12;98131.59;;;5.92;76.64
57000;BME280;42891;50.006;21.964;2023-02-24T06:38:17;98130.63;;;5.93;79.02
57000;BME280;42891;50.006;21.964;2023-02-24T06:42:17;98127.00;;;5.85;80.96
57000;BME280;42891;50.006;21.964;2023-02-24T06:46:21;98123.53;;;5.63;82.62
57000;BME280;42891;50.006;21.964;2023-02-24T06:50:21;98115.94;;;5.60;84.20
57000;BME280;42891;50.006;21.964;2023-02-24T06:54:23;98125.59;;;5.48;85.75
57000;BME280;42891;50.006;21.964;2023-02-24T06:58:29;98127.16;;;5.51;86.66
57000;BME280;42891;50.006;21.964;2023-02-24T07:02:30;98119.53;;;5.47;87.65
57000;BME280;42891;50.006;21.964;2023-02-24T07:06:40;98115.84;;;5.50;88.59
57000;BME280;42891;50.006;21.964;2023-02-24T07:10:40;98112.50;;;5.48;89.04
57000;BME280;42891;50.006;21.964;2023-02-24T07:14:41;98120.84;;;5.53;88.89
57000;BME280;42891;50.006;21.964;2023-02-24T07:18:42;98103.72;;;5.70;89.05
57000;BME280;42891;50.006;21.964;2023-02-24T07:22:43;98091.53;;;5.59;88.90
57000;BME280;42891;50.006;21.964;2023-02-24T07:26:45;98100.41;;;5.68;89.22
57000;BME280;42891;50.006;21.964;2023-02-24T07:30:50;98099.88;;;5.53;89.58
57000;BME280;42891;50.006;21.964;2023-02-24T07:34:53;98086.59;;;5.66;89.59
57000;BME280;42891;50.006;21.964;2023-02-24T07:38:57;98095.25;;;5.57;90.07
57000;BME280;42891;50.006;21.964;2023-02-24T07:43:00;98086.59;;;5.66;89.87
57000;BME280;42891;50.006;21.964;2023-02-24T07:47:01;98086.94;;;5.73;89.69
57000;BME280;42891;50.006;21.964;2023-02-24T07:55:07;98074.09;;;5.49;91.24
57000;BME280;42891;50.006;21.964;2023-02-24T07:59:12;98080.53;;;5.66;90.68
57000;BME280;42891;50.006;21.964;2023-02-24T08:03:15;98069.19;;;5.76;90.42
57000;BME280;42891;50.006;21.964;2023-02-24T08:07:18;98068.91;;;5.79;89.50
57000;BME280;42891;50.006;21.964;2023-02-24T08:11:27;98035.06;;;5.67;89.09
57000;BME280;42891;50.006;21.964;2023-02-24T08:15:41;98054.53;;;5.74;89.48
57000;BME280;42891;50.006;21.964;2023-02-24T08:19:48;98053.38;;;5.88;89.35
57000;BME280;42891;50.006;21.964;2023-02-24T08:23:49;98047.06;;;5.90;88.98
57000;BME280;42891;50.006;21.964;2023-02-24T08:27:53;98027.13;;;5.78;88.44
57000;BME280;42891;50.006;21.964;2023-02-24T08:31:57;98022.59;;;6.01;87.76
57000;BME280;42891;50.006;21.964;2023-02-24T08:35:58;98010.44;;;6.00;87.10
57000;BME280;42891;50.006;21.964;2023-02-24T08:40:01;98000.72;;;5.91;86.33
57000;BME280;42891;50.006;21.964;2023-02-24T08:44:04;98026.63;;;6.05;85.87
57000;BME280;42891;50.006;21.964;2023-02-24T08:48:05;98011.00;;;6.04;85.64
57000;BME280;42891;50.006;21.964;2023-02-24T08:52:17;97991.91;;;5.92;86.09
57000;BME280;42891;50.006;21.964;2023-02-24T08:56:27;97990.00;;;6.25;85.50
57000;BME280;42891;50.006;21.964;2023-02-24T09:00:28;98007.50;;;6.24;84.81
57000;BME280;42891;50.006;21.964;2023-02-24T09:04:54;97966.06;;;6.08;84.39
57000;BME280;42891;50.006;21.964;2023-02-24T09:08:55;97974.25;;;6.15;83.99
57000;BME280;42891;50.006;21.964;2023-02-24T09:13:14;97979.50;;;6.25;83.76
57000;BME280;42891;50.006;21.964;2023-02-24T09:17:15;97973.22;;;6.47;84.10
57000;BME280;42891;50.006;21.964;2023-02-24T09:21:19;97954.59;;;6.50;82.62
57000;BME280;42891;50.006;21.964;2023-02-24T09:25:38;97987.13;;;6.38;82.55
57000;BME280;42891;50.006;21.964;2023-02-24T09:29:48;97934.94;;;6.25;83.09
57000;BME280;42891;50.006;21.964;2023-02-24T09:33:49;97939.03;;;6.18;83.00
57000;BME280;42891;50.006;21.964;2023-02-24T09:37:53;97940.34;;;6.33;82.78
57000;BME280;42891;50.006;21.964;2023-02-24T09:41:57;97949.72;;;6.36;83.71
57000;BME280;42891;50.006;21.964;2023-02-24T09:46:23;97942.53;;;6.28;83.79
57000;BME280;42891;50.006;21.964;2023-02-24T09:50:31;97922.78;;;6.24;84.11
57000;BME280;42891;50.006;21.964;2023-02-24T09:55:00;97934.41;;;6.41;83.61
57000;BME280;42891;50.006;21.964;2023-02-24T09:59:29;97930.84;;;6.52;82.82
57000;BME280;42891;50.006;21.964;2023-02-24T10:03:39;97946.88;;;6.58;83.19
57000;BME280;42891;50.006;21.964;2023-02-24T10:07:42;97912.47;;;6.52;82.93
57000;BME280;42891;50.006;21.964;2023-02-24T10:11:46;97913.44;;;6.60;83.59
57000;BME280;42891;50.006;21.964;2023-02-24T10:15:53;97890.94;;;6.58;83.01
57000;BME280;42891;50.006;21.964;2023-02-24T10:19:59;97919.25;;;6.64;82.66
57000;BME280;42891;50.006;21.964;2023-02-24T10:24:18;97900.19;;;6.81;82.92
57000;BME280;42891;50.006;21.964;2023-02-24T10:28:44;97891.94;;;6.67;83.43
57000;BME280;42891;50.006;21.964;2023-02-24T10:32:53;97874.53;;;6.65;84.77
57000;BME280;42891;50.006;21.964;2023-02-24T10:37:11;97872.19;;;6.53;85.18
57000;BME280;42891;50.006;21.964;2023-02-24T10:41:13;97870.25;;;6.64;85.63
57000;BME280;42891;50.006;21.964;2023-02-24T10:45:19;97857.97;;;6.65;85.66
57000;BME280;42891;50.006;21.964;2023-02-24T10:49:22;97839.03;;;6.71;85.66
57000;BME280;42891;50.006;21.964;2023-02-24T10:53:27;97844.00;;;6.55;85.86
57000;BME280;42891;50.006;21.964;2023-02-24T10:57:44;97831.88;;;6.73;86.45
57000;BME280;42891;50.006;21.964;2023-02-24T11:02:18;97835.34;;;6.54;85.98
57000;BME280;42891;50.006;21.964;2023-02-24T11:06:32;97813.66;;;6.42;87.61
57000;BME280;42891;50.006;21.964;2023-02-24T11:10:51;97817.66;;;6.56;88.88
57000;BME280;42891;50.006;21.964;2023-02-24T11:14:54;97802.78;;;6.47;89.92
57000;BME280;42891;50.006;21.964;2023-02-24T11:19:14;97797.06;;;6.61;91.24
57000;BME280;42891;50.006;21.964;2023-02-24T11:23:22;97770.88;;;6.52;91.57
57000;BME280;42891;50.006;21.964;2023-02-24T11:27:23;97779.94;;;6.67;91.44
57000;BME280;42891;50.006;21.964;2023-02-24T11:35:57;97744.22;;;6.56;90.48
57000;BME280;42891;50.006;21.964;2023-02-24T11:40:24;97756.06;;;6.60;90.16
57000;BME280;42891;50.006;21.964;2023-02-24T11:44:44;97749.34;;;6.28;89.39
57000;BME280;42891;50.006;21.964;2023-02-24T11:48:51;97753.66;;;6.29;89.42
57000;BME280;42891;50.006;21.964;2023-02-24T11:52:57;97736.66;;;6.43;89.82
57000;BME280;42891;50.006;21.964;2023-02-24T11:56:59;97734.81;;;6.54;88.59
57000;BME280;42891;50.006;21.964;2023-02-24T12:01:07;97736.91;;;6.50;88.80
57000;BME280;42891;50.006;21.964;2023-02-24T12:05:13;97709.84;;;6.49;87.96
57000;BME280;42891;50.006;21.964;2023-02-24T12:09:20;97718.81;;;6.67;88.49
57000;BME280;42891;50.006;21.964;2023-02-24T12:13:39;97711.34;;;6.62;87.50
57000;BME280;42891;50.006;21.964;2023-02-24T12:21:56;97706.50;;;6.67;86.77
57000;BME280;42891;50.006;21.964;2023-02-24T12:39:13;97691.53;;;6.87;85.34
57000;BME280;42891;50.006;21.964;2023-02-24T12:43:50;97663.97;;;6.73;84.15
57000;BME280;42891;50.006;21.964;2023-02-24T13:05:37;97665.59;;;6.74;84.36
57000;BME280;42891;50.006;21.964;2023-02-24T13:14:20;97618.84;;;6.70;83.95
57000;BME280;42891;50.006;21.964;2023-02-24T13:18:30;97663.97;;;7.01;83.36
57000;BME280;42891;50.006;21.964;2023-02-24T13:22:31;97650.91;;;6.91;83.41
57000;BME280;42891;50.006;21.964;2023-02-24T13:26:32;97656.28;;;6.90;83.39
57000;BME280;42891;50.006;21.964;2023-02-24T13:30:42;97649.81;;;6.84;84.25
57000;BME280;42891;50.006;21.964;2023-02-24T13:34:44;97658.28;;;7.06;84.13
57000;BME280;42891;50.006;21.964;2023-02-24T13:38:46;97642.66;;;6.86;83.96
57000;BME280;42891;50.006;21.964;2023-02-24T13:42:57;97652.88;;;7.07;83.44
57000;BME280;42891;50.006;21.964;2023-02-24T13:55:45;97633.34;;;8.44;78.25
57000;BME280;42891;50.006;21.964;2023-02-24T14:04:18;97635.25;;;8.60;76.58
57000;BME280;42891;50.006;21.964;2023-02-24T14:08:44;97636.09;;;8.61;75.56
57000;BME280;42891;50.006;21.964;2023-02-24T14:12:47;97617.13;;;8.83;74.02
57000;BME280;42891;50.006;21.964;2023-02-24T14:16:50;97630.28;;;8.83;73.64
57000;BME280;42891;50.006;21.964;2023-02-24T14:20:51;97630.31;;;8.31;76.15
57000;BME280;42891;50.006;21.964;2023-02-24T14:25:00;97612.38;;;8.26;76.64
57000;BME280;42891;50.006;21.964;2023-02-24T14:29:01;97625.47;;;8.44;75.68
57000;BME280;42891;50.006;21.964;2023-02-24T14:33:02;97607.34;;;8.67;74.43
57000;BME280;42891;50.006;21.964;2023-02-24T14:37:05;97590.88;;;8.65;73.79
57000;BME280;42891;50.006;21.964;2023-02-24T14:41:18;97594.41;;;8.22;75.29
57000;BME280;42891;50.006;21.964;2023-02-24T14:45:20;97588.03;;;8.24;75.63
57000;BME280;42891;50.006;21.964;2023-02-24T14:49:27;97581.31;;;8.03;76.34
57000;BME280;42891;50.006;21.964;2023-02-24T14:53:29;97589.09;;;7.61;78.15
57000;BME280;42891;50.006;21.964;2023-02-24T14:57:37;97586.81;;;7.30;79.73
57000;BME280;42891;50.006;21.964;2023-02-24T15:01:43;97576.41;;;7.20;80.32
57000;BME280;42891;50.006;21.964;2023-02-24T15:05:48;97548.06;;;7.06;80.24
57000;BME280;42891;50.006;21.964;2023-02-24T15:09:50;97546.63;;;6.93;81.17
57000;BME280;42891;50.006;21.964;2023-02-24T15:13:56;97549.09;;;6.95;81.74
57000;BME280;42891;50.006;21.964;2023-02-24T15:18:04;97551.88;;;7.11;81.17
57000;BME280;42891;50.006;21.964;2023-02-24T15:22:32;97560.78;;;7.00;81.93
57000;BME280;42891;50.006;21.964;2023-02-24T15:26:33;97552.41;;;7.15;81.64
57000;BME280;42891;50.006;21.964;2023-02-24T15:30:36;97554.09;;;6.88;82.68
57000;BME280;42891;50.006;21.964;2023-02-24T15:34:37;97550.34;;;6.73;83.22
57000;BME280;42891;50.006;21.964;2023-02-24T15:38:40;97529.34;;;6.73;83.51
57000;BME280;42891;50.006;21.964;2023-02-24T15:43:06;97519.38;;;6.58;83.65
57000;BME280;42891;50.006;21.964;2023-02-24T15:47:15;97527.34;;;6.85;83.67
57000;BME280;42891;50.006;21.964;2023-02-24T15:51:36;97523.84;;;6.66;83.93
57000;BME280;42891;50.006;21.964;2023-02-24T15:55:37;97529.75;;;6.50;84.87
57000;BME280;42891;50.006;21.964;2023-02-24T15:59:39;97531.03;;;6.46;85.12
57000;BME280;42891;50.006;21.964;2023-02-24T16:03:40;97523.03;;;6.10;86.47
57000;BME280;42891;50.006;21.964;2023-02-24T16:07:42;97514.19;;;6.21;86.38
57000;BME280;42891;50.006;21.964;2023-02-24T16:11:45;97503.09;;;5.99;86.99
57000;BME280;42891;50.006;21.964;2023-02-24T16:15:45;97501.00;;;6.03;87.14
57000;BME280;42891;50.006;21.964;2023-02-24T16:19:46;97480.72;;;5.95;87.71
57000;BME280;42891;50.006;21.964;2023-02-24T16:23:46;97496.38;;;5.77;88.66
57000;BME280;42891;50.006;21.964;2023-02-24T16:27:47;97483.69;;;5.82;88.94
57000;BME280;42891;50.006;21.964;2023-02-24T16:31:48;97490.13;;;5.88;88.90
57000;BME280;42891;50.006;21.964;2023-02-24T16:35:50;97476.22;;;5.87;88.66
57000;BME280;42891;50.006;21.964;2023-02-24T16:39:52;97473.97;;;5.92;88.64
57000;BME280;42891;50.006;21.964;2023-02-24T16:43:52;97486.66;;;5.97;89.06
57000;BME280;42891;50.006;21.964;2023-02-24T16:47:54;97472.09;;;5.85;89.35
57000;BME280;42891;50.006;21.964;2023-02-24T16:51:55;97463.81;;;5.79;89.41
57000;BME280;42891;50.006;21.964;2023-02-24T16:55:55;97477.47;;;5.83;89.63
57000;BME280;42891;50.006;21.964;2023-02-24T16:59:55;97474.41;;;5.88;89.72
57000;BME280;42891;50.006;21.964;2023-02-24T17:03:55;97475.41;;;5.77;90.63
57000;BME280;42891;50.006;21.964;2023-02-24T17:07:57;97448.78;;;5.81;89.88
57000;BME280;42891;50.006;21.964;2023-02-24T17:11:57;97458.91;;;5.67;91.13
57000;BME280;42891;50.006;21.964;2023-02-24T17:15:59;97451.81;;;5.87;90.87
57000;BME280;42891;50.006;21.964;2023-02-24T17:20:00;97436.81;;;5.79;90.35
57000;BME280;42891;50.006;21.964;2023-02-24T17:24:00;97443.09;;;5.96;90.65
57000;BME280;42891;50.006;21.964;2023-02-24T17:28:00;97439.25;;;5.90;90.92
57000;BME280;42891;50.006;21.964;2023-02-24T17:32:00;97442.72;;;5.81;91.69
57000;BME280;42891;50.006;21.964;2023-02-24T17:36:01;97422.06;;;5.78;91.52
57000;BME280;42891;50.006;21.964;2023-02-24T17:40:02;97425.50;;;5.78;92.25
57000;BME280;42891;50.006;21.964;2023-02-24T17:44:03;97429.03;;;5.97;92.59
57000;BME280;42891;50.006;21.964;2023-02-24T17:48:04;97417.66;;;5.78;93.02
57000;BME280;42891;50.006;21.964;2023-02-24T17:52:04;97417.13;;;5.75;93.22
57000;BME280;42891;50.006;21.964;2023-02-24T17:56:05;97411.16;;;5.83;93.34
57000;BME280;42891;50.006;21.964;2023-02-24T18:00:08;97417.28;;;5.73;93.65
57000;BME280;42891;50.006;21.964;2023-02-24T18:04:11;97395.03;;;5.77;93.80
57000;BME280;42891;50.006;21.964;2023-02-24T18:08:14;97373.88;;;5.71;93.61
57000;BME280;42891;50.006;21.964;2023-02-24T18:12:14;97386.72;;;5.64;94.48
57000;BME280;42891;50.006;21.964;2023-02-24T18:16:17;97391.03;;;5.83;94.61
57000;BME280;42891;50.006;21.964;2023-02-24T18:20:18;97399.16;;;5.80;94.14
57000;BME280;42891;50.006;21.964;2023-02-24T18:24:18;97406.16;;;5.89;94.00
57000;BME280;42891;50.006;21.964;2023-02-24T18:28:19;97392.97;;;5.81;94.41
57000;BME280;42891;50.006;21.964;2023-02-24T18:32:19;97404.50;;;5.88;94.47
57000;BME280;42891;50.006;21.964;2023-02-24T18:36:19;97365.41;;;5.77;94.00
57000;BME280;42891;50.006;21.964;2023-02-24T18:40:20;97368.28;;;5.84;94.15
57000;BME280;42891;50.006;21.964;2023-02-24T18:44:20;97363.28;;;5.90;93.26
57000;BME280;42891;50.006;21.964;2023-02-24T18:48:20;97378.81;;;6.02;93.54
57000;BME280;42891;50.006;21.964;2023-02-24T18:52:20;97367.94;;;5.96;93.50
57000;BME280;42891;50.006;21.964;2023-02-24T18:56:23;97360.72;;;6.08;93.19
57000;BME280;42891;50.006;21.964;2023-02-24T19:00:24;97351.28;;;5.97;92.86
57000;BME280;42891;50.006;21.964;2023-02-24T19:04:25;97345.44;;;6.04;93.22
57000;BME280;42891;50.006;21.964;2023-02-24T19:08:25;97356.06;;;6.02;93.30
57000;BME280;42891;50.006;21.964;2023-02-24T19:12:25;97350.19;;;5.90;93.92
57000;BME280;42891;50.006;21.964;2023-02-24T19:16:26;97338.56;;;6.03;94.03
57000;BME280;42891;50.006;21.964;2023-02-24T19:20:27;97345.97;;;5.79;96.56
57000;BME280;42891;50.006;21.964;2023-02-24T19:24:27;97354.88;;;5.87;98.47
57000;BME280;42891;50.006;21.964;2023-02-24T19:28:29;97360.88;;;5.79;100.00
57000;BME280;42891;50.006;21.964;2023-02-24T19:32:29;97361.22;;;5.56;100.00
57000;BME280;42891;50.006;21.964;2023-02-24T19:36:32;97338.63;;;5.65;100.00
57000;BME280;42891;50.006;21.964;2023-02-24T19:40:34;97328.03;;;5.57;100.00
57000;BME280;42891;50.006;21.964;2023-02-24T19:44:35;97306.56;;;5.53;100.00
57000;BME280;42891;50.006;21.964;2023-02-24T19:48:35;97301.00;;;5.56;100.00
57000;BME280;42891;50.006;21.964;2023-02-24T19:52:35;97296.16;;;5.61;100.00
57000;BME280;42891;50.006;21.964;2023-02-24T19:56:36;97293.44;;;5.81;100.00
57000;BME280;42891;50.006;21.964;2023-02-24T20:00:36;97297.09;;;5.88;100.00
57000;BME280;42891;50.006;21.964;2023-02-24T20:04:37;97288.66;;;5.76;100.00
57000;BME280;42891;50.006;21.964;2023-02-24T20:08:37;97287.22;;;5.82;100.00
57000;BME280;42891;50.006;21.964;2023-02-24T20:12:37;97275.22;;;5.61;100.00
57000;BME280;42891;50.006;21.964;2023-02-24T20:16:39;97279.00;;;5.77;100.00
57000;BME280;42891;50.006;21.964;2023-02-24T20:20:39;97277.53;;;5.64;100.00
57000;BME280;42891;50.006;21.964;2023-02-24T20:24:39;97250.69;;;5.62;100.00
57000;BME280;42891;50.006;21.964;2023-02-24T20:28:40;97259.63;;;5.88;100.00
57000;BME280;42891;50.006;21.964;2023-02-24T20:32:40;97260.41;;;5.70;100.00
57000;BME280;42891;50.006;21.964;2023-02-24T20:36:41;97240.16;;;5.72;100.00
57000;BME280;42891;50.006;21.964;2023-02-24T20:40:42;97249.28;;;5.86;100.00
57000;BME280;42891;50.006;21.964;2023-02-24T20:44:43;97236.78;;;5.80;100.00
57000;BME280;42891;50.006;21.964;2023-02-24T20:48:43;97244.44;;;5.91;100.00
57000;BME280;42891;50.006;21.964;2023-02-24T20:52:44;97219.72;;;5.76;100.00
57000;BME280;42891;50.006;21.964;2023-02-24T20:56:44;97235.28;;;5.95;100.00
57000;BME280;42891;50.006;21.964;2023-02-24T21:00:45;97207.88;;;5.90;100.00
57000;BME280;42891;50.006;21.964;2023-02-24T21:04:45;97217.97;;;6.12;100.00
57000;BME280;42891;50.006;21.964;2023-02-24T21:08:45;97213.47;;;6.05;100.00
57000;BME280;42891;50.006;21.964;2023-02-24T21:12:46;97195.97;;;6.05;100.00
57000;BME280;42891;50.006;21.964;2023-02-24T21:16:46;97194.28;;;6.22;100.00
57000;BME280;42891;50.006;21.964;2023-02-24T21:20:51;97177.75;;;6.04;100.00
57000;BME280;42891;50.006;21.964;2023-02-24T21:24:51;97174.53;;;6.10;100.00
57000;BME280;42891;50.006;21.964;2023-02-24T21:28:55;97168.81;;;6.14;100.00
57000;BME280;42891;50.006;21.964;2023-02-24T21:32:55;97156.84;;;6.12;100.00
57000;BME280;42891;50.006;21.964;2023-02-24T21:36:55;97161.38;;;6.28;100.00
57000;BME280;42891;50.006;21.964;2023-02-24T21:41:00;97151.88;;;6.27;100.00
57000;BME280;42891;50.006;21.964;2023-02-24T21:45:01;97142.72;;;6.31;100.00
57000;BME280;42891;50.006;21.964;2023-02-24T21:49:01;97113.09;;;6.30;100.00
57000;BME280;42891;50.006;21.964;2023-02-24T21:53:02;97111.63;;;6.36;100.00
57000;BME280;42891;50.006;21.964;2023-02-24T21:57:02;97094.22;;;6.27;100.00
57000;BME280;42891;50.006;21.964;2023-02-24T22:01:20;97101.97;;;6.37;100.00
57000;BME280;42891;50.006;21.964;2023-02-24T22:05:23;97068.97;;;6.26;100.00
57000;BME280;42891;50.006;21.964;2023-02-24T22:09:24;97084.63;;;6.44;100.00
57000;BME280;42891;50.006;21.964;2023-02-24T22:13:25;97075.91;;;6.35;100.00
57000;BME280;42891;50.006;21.964;2023-02-24T22:17:25;97062.31;;;6.40;100.00
57000;BME280;42891;50.006;21.964;2023-02-24T22:21:27;97058.59;;;6.51;100.00
57000;BME280;42891;50.006;21.964;2023-02-24T22:25:28;97063.09;;;6.67;100.00
57000;BME280;42891;50.006;21.964;2023-02-24T22:29:28;97053.38;;;6.59;100.00
57000;BME280;42891;50.006;21.964;2023-02-24T22:33:29;97043.75;;;6.59;100.00
57000;BME280;42891;50.006;21.964;2023-02-24T22:37:30;97034.44;;;6.73;100.00
57000;BME280;42891;50.006;21.964;2023-02-24T22:41:32;97017.38;;;6.69;100.00
57000;BME280;42891;50.006;21.964;2023-02-24T22:45:33;97017.22;;;6.71;100.00
57000;BME280;42891;50.006;21.964;2023-02-24T22:49:33;97010.00;;;6.73;100.00
57000;BME280;42891;50.006;21.964;2023-02-24T22:53:36;97003.25;;;6.70;100.00
57000;BME280;42891;50.006;21.964;2023-02-24T22:57:36;97004.09;;;6.71;100.00
57000;BME280;42891;50.006;21.964;2023-02-24T23:01:37;97007.19;;;6.66;100.00